< < Back
Terminal Aerodrome Forecast


Current Version              Previous Versions:   1  2  3  4  5  6  7  8  9  

Terminal Aerodrome Forecast

497
FTUS42 KFFC 031136
TAFATL
TAF
KATL 031136Z 0312/0418 24012KT P6SM FEW010 BKN100
     FM031400 25012KT P6SM SHRA BKN025 BKN050
      TEMPO 0316/0320 25015G25KT 4SM TSRA BKN015CB
     FM032100 27012KT 5SM TSRA BKN020CB
     FM040100 27008KT P6SM -SHRA BKN030 BKN080
     FM040600 26009KT P6SM OVC020
     FM041200 25008KT P6SM SCT030 BKN060=



Latest METAR

038
SAUS70 KWBC 031400 RRB
MTRATL
METAR KATL 031352Z 25012KT 8SM -TSRA FEW017CB BKN025 OVC095 22/19 A3003
RMK AO2 PK WND 30027/1334 TSB22RAB30 SLP160 VIS LWR E-SE-S
SHRA FRQ LTGICCG E-SE-S TS E-SE-S MOV SE P0031 T02170189


USA.gov is the U.S. government's official web portal to all federal, state and local government web resources and services.